EGHH/BOH METAR and TAF weather

Enter ICAO airport designator
Station Type Date Time Source
EGHH METAR 2019/08/21 23:50 UTC NOAA

EGHH 212350Z 23002KT CAVOK 12/09 Q1025


Station Type Date Time Source
EGHH Decoded METAR 2019/08/21 23:50 UTC NOAA

Station name not available
Aug 21, 2019 - 07:50 PM EDT / 2019.08.21 2350 UTC
Wind: from the SW (230 degrees) at 2 MPH (2 KT):0
Visibility: greater than 7 mile(s):0
Temperature: 53 F (12 C)
Dew Point: 48 F (9 C)
Relative Humidity: 81%
Pressure (altimeter): 30.27 in. Hg (1025 hPa)
ob: EGHH 212350Z 23002KT CAVOK 12/09 Q1025
cycle: 0

Station Type Date Time Source
EGHH TAF 2013/12/01 21:21 UTC NOAA

TAF TAF EGHH 010016Z 3021/0106 CNL

Example: see airport list